sensor_id;sensor_type;location;lat;lon;timestamp;pressure;altitude;pressure_sealevel;temperature;humidity
39357;BME280;25077;50.302;18.996;2022-07-06T00:00:01;98272.91;;;16.24;77.89
39357;BME280;25077;50.302;18.996;2022-07-06T00:03:05;98272.13;;;16.24;78.35
39357;BME280;25077;50.302;18.996;2022-07-06T00:06:07;98275.25;;;16.22;77.82
39357;BME280;25077;50.302;18.996;2022-07-06T00:09:11;98268.63;;;16.23;77.86
39357;BME280;25077;50.302;18.996;2022-07-06T00:12:13;98277.59;;;16.20;78.08
39357;BME280;25077;50.302;18.996;2022-07-06T00:15:15;98276.06;;;16.16;78.36
39357;BME280;25077;50.302;18.996;2022-07-06T00:18:17;98271.38;;;16.13;77.92
39357;BME280;25077;50.302;18.996;2022-07-06T00:21:19;98272.94;;;16.10;77.83
39357;BME280;25077;50.302;18.996;2022-07-06T00:24:23;98269.06;;;16.08;78.52
39357;BME280;25077;50.302;18.996;2022-07-06T00:27:25;98274.94;;;16.06;77.87
39357;BME280;25077;50.302;18.996;2022-07-06T00:30:27;98273.75;;;16.07;77.70
39357;BME280;25077;50.302;18.996;2022-07-06T00:33:29;98268.28;;;16.03;78.43
39357;BME280;25077;50.302;18.996;2022-07-06T00:36:31;98270.63;;;16.01;77.60
39357;BME280;25077;50.302;18.996;2022-07-06T00:39:34;98269.44;;;15.99;77.94
39357;BME280;25077;50.302;18.996;2022-07-06T00:42:40;98273.75;;;16.00;77.94
39357;BME280;25077;50.302;18.996;2022-07-06T00:45:42;98274.13;;;15.98;77.36
39357;BME280;25077;50.302;18.996;2022-07-06T00:48:45;98278.81;;;15.98;77.31
39357;BME280;25077;50.302;18.996;2022-07-06T00:51:47;98276.06;;;15.98;77.32
39357;BME280;25077;50.302;18.996;2022-07-06T00:54:51;98278.81;;;15.98;77.79
39357;BME280;25077;50.302;18.996;2022-07-06T00:57:53;98287.78;;;15.98;77.71
39357;BME280;25077;50.302;18.996;2022-07-06T01:00:56;98275.69;;;15.96;77.78
39357;BME280;25077;50.302;18.996;2022-07-06T01:03:58;98280.38;;;15.92;77.93
39357;BME280;25077;50.302;18.996;2022-07-06T01:07:00;98270.25;;;15.89;77.16
39357;BME280;25077;50.302;18.996;2022-07-06T01:10:05;98277.28;;;15.86;77.32
39357;BME280;25077;50.302;18.996;2022-07-06T01:13:08;98265.97;;;15.81;78.21
39357;BME280;25077;50.302;18.996;2022-07-06T01:16:11;98266.75;;;15.74;77.66
39357;BME280;25077;50.302;18.996;2022-07-06T01:19:13;98253.88;;;15.74;77.40
39357;BME280;25077;50.302;18.996;2022-07-06T01:22:16;98260.13;;;15.75;77.60
39357;BME280;25077;50.302;18.996;2022-07-06T01:25:20;98250.78;;;15.72;77.65
39357;BME280;25077;50.302;18.996;2022-07-06T01:28:22;98254.66;;;15.71;77.49
39357;BME280;25077;50.302;18.996;2022-07-06T01:31:25;98255.06;;;15.70;77.31
39357;BME280;25077;50.302;18.996;2022-07-06T01:34:27;98264.44;;;15.69;77.84
39357;BME280;25077;50.302;18.996;2022-07-06T01:37:31;98252.34;;;15.66;77.29
39357;BME280;25077;50.302;18.996;2022-07-06T01:40:33;98258.97;;;15.62;77.06
39357;BME280;25077;50.302;18.996;2022-07-06T01:43:35;98254.69;;;15.61;77.50
39357;BME280;25077;50.302;18.996;2022-07-06T01:46:37;98257.44;;;15.57;77.02
39357;BME280;25077;50.302;18.996;2022-07-06T01:49:42;98264.06;;;15.49;77.75
39357;BME280;25077;50.302;18.996;2022-07-06T01:52:46;98254.31;;;15.44;77.58
39357;BME280;25077;50.302;18.996;2022-07-06T01:55:48;98265.59;;;15.43;77.20
39357;BME280;25077;50.302;18.996;2022-07-06T01:58:51;98268.34;;;15.39;77.20
39357;BME280;25077;50.302;18.996;2022-07-06T02:01:53;98267.97;;;15.34;77.61
39357;BME280;25077;50.302;18.996;2022-07-06T02:04:55;98266.78;;;15.31;77.23
39357;BME280;25077;50.302;18.996;2022-07-06T02:07:58;98264.44;;;15.30;77.60
39357;BME280;25077;50.302;18.996;2022-07-06T02:11:01;98262.88;;;15.29;77.18
39357;BME280;25077;50.302;18.996;2022-07-06T02:14:04;98263.28;;;15.23;77.22
39357;BME280;25077;50.302;18.996;2022-07-06T02:17:06;98261.34;;;15.20;77.37
39357;BME280;25077;50.302;18.996;2022-07-06T02:20:09;98259.38;;;15.17;77.26
39357;BME280;25077;50.302;18.996;2022-07-06T02:23:13;98257.41;;;15.14;77.65
39357;BME280;25077;50.302;18.996;2022-07-06T02:26:16;98253.16;;;15.10;77.07
39357;BME280;25077;50.302;18.996;2022-07-06T02:29:19;98257.41;;;15.07;77.36
39357;BME280;25077;50.302;18.996;2022-07-06T02:32:22;98265.22;;;15.05;77.06
39357;BME280;25077;50.302;18.996;2022-07-06T02:35:24;98265.97;;;15.02;77.84
39357;BME280;25077;50.302;18.996;2022-07-06T02:38:28;98269.88;;;15.01;77.61
39357;BME280;25077;50.302;18.996;2022-07-06T02:41:31;98272.97;;;14.99;77.48
39357;BME280;25077;50.302;18.996;2022-07-06T02:44:33;98266.72;;;14.95;77.50
39357;BME280;25077;50.302;18.996;2022-07-06T02:47:35;98266.34;;;14.93;77.17
39357;BME280;25077;50.302;18.996;2022-07-06T02:50:38;98261.66;;;14.90;77.46
39357;BME280;25077;50.302;18.996;2022-07-06T02:53:42;98261.66;;;14.87;77.71
39357;BME280;25077;50.302;18.996;2022-07-06T02:56:44;98265.53;;;14.86;77.98
39357;BME280;25077;50.302;18.996;2022-07-06T02:59:51;98270.59;;;14.84;77.48
39357;BME280;25077;50.302;18.996;2022-07-06T03:02:54;98267.09;;;14.83;77.52
39357;BME280;25077;50.302;18.996;2022-07-06T03:05:57;98266.31;;;14.83;78.11
39357;BME280;25077;50.302;18.996;2022-07-06T03:09:01;98272.53;;;14.83;77.99
39357;BME280;25077;50.302;18.996;2022-07-06T03:12:04;98271.38;;;14.84;78.17
39357;BME280;25077;50.302;18.996;2022-07-06T03:15:09;98276.44;;;14.82;78.57
39357;BME280;25077;50.302;18.996;2022-07-06T03:18:14;98273.31;;;14.80;78.69
39357;BME280;25077;50.302;18.996;2022-07-06T03:21:16;98273.72;;;14.82;78.36
39357;BME280;25077;50.302;18.996;2022-07-06T03:24:20;98272.56;;;14.87;78.46
39357;BME280;25077;50.302;18.996;2022-07-06T03:27:22;98276.44;;;14.89;78.21
39357;BME280;25077;50.302;18.996;2022-07-06T03:30:24;98287.75;;;14.95;78.83
39357;BME280;25077;50.302;18.996;2022-07-06T03:33:29;98279.63;;;15.02;78.06
39357;BME280;25077;50.302;18.996;2022-07-06T03:36:31;98286.25;;;15.05;77.69
39357;BME280;25077;50.302;18.996;2022-07-06T03:39:35;98287.81;;;15.09;77.97
39357;BME280;25077;50.302;18.996;2022-07-06T03:42:38;98285.09;;;15.13;77.85
39357;BME280;25077;50.302;18.996;2022-07-06T03:45:43;98285.09;;;15.16;77.79
39357;BME280;25077;50.302;18.996;2022-07-06T03:48:45;98286.28;;;15.15;77.43
39357;BME280;25077;50.302;18.996;2022-07-06T03:51:47;98289.38;;;15.10;77.54
39357;BME280;25077;50.302;18.996;2022-07-06T03:54:50;98297.16;;;15.01;77.26
39357;BME280;25077;50.302;18.996;2022-07-06T03:57:58;98300.25;;;14.99;77.50
39357;BME280;25077;50.302;18.996;2022-07-06T04:01:01;98295.56;;;15.00;77.48
39357;BME280;25077;50.302;18.996;2022-07-06T04:04:03;98313.50;;;15.01;77.64
39357;BME280;25077;50.302;18.996;2022-07-06T04:07:07;98322.06;;;14.99;77.29
39357;BME280;25077;50.302;18.996;2022-07-06T04:10:10;98328.69;;;14.98;77.82
39357;BME280;25077;50.302;18.996;2022-07-06T04:13:12;98321.25;;;14.95;77.49
39357;BME280;25077;50.302;18.996;2022-07-06T04:16:15;98324.75;;;14.96;77.85
39357;BME280;25077;50.302;18.996;2022-07-06T04:19:17;98331.78;;;14.97;78.23
39357;BME280;25077;50.302;18.996;2022-07-06T04:22:20;98334.91;;;14.99;77.73
39357;BME280;25077;50.302;18.996;2022-07-06T04:25:23;98336.47;;;15.00;77.80
39357;BME280;25077;50.302;18.996;2022-07-06T04:28:26;98334.56;;;15.01;77.82
39357;BME280;25077;50.302;18.996;2022-07-06T04:31:28;98336.88;;;15.02;77.84
39357;BME280;25077;50.302;18.996;2022-07-06T04:34:30;98342.38;;;15.09;77.93
39357;BME280;25077;50.302;18.996;2022-07-06T04:37:32;98338.47;;;15.17;78.02
39357;BME280;25077;50.302;18.996;2022-07-06T04:40:36;98344.75;;;15.29;77.72
39357;BME280;25077;50.302;18.996;2022-07-06T04:43:42;98341.63;;;15.34;77.58
39357;BME280;25077;50.302;18.996;2022-07-06T04:46:48;98342.41;;;15.38;77.20
39357;BME280;25077;50.302;18.996;2022-07-06T04:49:50;98339.28;;;15.43;77.52
39357;BME280;25077;50.302;18.996;2022-07-06T04:52:52;98345.56;;;15.43;77.10
39357;BME280;25077;50.302;18.996;2022-07-06T04:55:56;98343.97;;;15.42;77.13
39357;BME280;25077;50.302;18.996;2022-07-06T04:59:00;98348.66;;;15.49;77.41
39357;BME280;25077;50.302;18.996;2022-07-06T05:02:03;98354.09;;;15.42;76.90
39357;BME280;25077;50.302;18.996;2022-07-06T05:05:05;98358.00;;;15.34;76.75
39357;BME280;25077;50.302;18.996;2022-07-06T05:08:10;98358.00;;;15.34;77.03
39357;BME280;25077;50.302;18.996;2022-07-06T05:11:14;98351.75;;;15.37;76.92
39357;BME280;25077;50.302;18.996;2022-07-06T05:14:17;98358.00;;;15.41;77.11
39357;BME280;25077;50.302;18.996;2022-07-06T05:17:20;98344.78;;;15.50;77.12
39357;BME280;25077;50.302;18.996;2022-07-06T05:20:22;98347.88;;;15.52;76.54
39357;BME280;25077;50.302;18.996;2022-07-06T05:23:24;98349.81;;;15.59;76.58
39357;BME280;25077;50.302;18.996;2022-07-06T05:26:31;98345.94;;;15.70;76.35
39357;BME280;25077;50.302;18.996;2022-07-06T05:29:33;98343.97;;;15.82;76.30
39357;BME280;25077;50.302;18.996;2022-07-06T05:32:35;98346.31;;;15.94;75.60
39357;BME280;25077;50.302;18.996;2022-07-06T05:35:37;98338.53;;;16.03;75.35
39357;BME280;25077;50.302;18.996;2022-07-06T05:38:40;98333.41;;;16.16;75.86
39357;BME280;25077;50.302;18.996;2022-07-06T05:41:45;98345.91;;;16.20;75.00
39357;BME280;25077;50.302;18.996;2022-07-06T05:44:47;98343.19;;;16.24;75.30
39357;BME280;25077;50.302;18.996;2022-07-06T05:47:49;98354.84;;;16.31;74.81
39357;BME280;25077;50.302;18.996;2022-07-06T05:51:10;98365.78;;;16.42;75.12
39357;BME280;25077;50.302;18.996;2022-07-06T05:54:14;98365.75;;;16.49;74.72
39357;BME280;25077;50.302;18.996;2022-07-06T05:57:18;98371.59;;;16.55;74.24
39357;BME280;25077;50.302;18.996;2022-07-06T06:00:20;98373.13;;;16.56;74.14
39357;BME280;25077;50.302;18.996;2022-07-06T06:03:27;98372.75;;;16.54;73.63
39357;BME280;25077;50.302;18.996;2022-07-06T06:06:29;98369.66;;;16.52;74.21
39357;BME280;25077;50.302;18.996;2022-07-06T06:09:33;98366.47;;;16.64;73.95
39357;BME280;25077;50.302;18.996;2022-07-06T06:12:37;98372.69;;;16.75;74.44
39357;BME280;25077;50.302;18.996;2022-07-06T06:15:39;98377.34;;;16.78;72.60
39357;BME280;25077;50.302;18.996;2022-07-06T06:18:41;98395.34;;;16.79;72.81
39357;BME280;25077;50.302;18.996;2022-07-06T06:21:43;98399.22;;;16.78;73.25
39357;BME280;25077;50.302;18.996;2022-07-06T06:24:45;98416.09;;;16.59;72.62
39357;BME280;25077;50.302;18.996;2022-07-06T06:27:49;98416.53;;;16.40;72.46
39357;BME280;25077;50.302;18.996;2022-07-06T06:30:50;98412.25;;;16.35;73.07
39357;BME280;25077;50.302;18.996;2022-07-06T06:33:53;98423.19;;;16.10;73.34
39357;BME280;25077;50.302;18.996;2022-07-06T06:36:55;98430.59;;;15.92;73.22
39357;BME280;25077;50.302;18.996;2022-07-06T06:39:57;98430.59;;;15.92;73.45
39357;BME280;25077;50.302;18.996;2022-07-06T06:43:00;98427.47;;;15.90;73.72
39357;BME280;25077;50.302;18.996;2022-07-06T06:46:04;98440.72;;;15.84;73.83
39357;BME280;25077;50.302;18.996;2022-07-06T06:49:06;98438.00;;;15.88;73.43
39357;BME280;25077;50.302;18.996;2022-07-06T06:52:08;98433.31;;;15.85;73.61
39357;BME280;25077;50.302;18.996;2022-07-06T06:55:10;98438.38;;;15.68;73.98
39357;BME280;25077;50.302;18.996;2022-07-06T06:58:13;98427.44;;;15.75;73.99
39357;BME280;25077;50.302;18.996;2022-07-06T07:01:15;98432.53;;;15.84;74.09
39357;BME280;25077;50.302;18.996;2022-07-06T07:04:17;98436.03;;;15.92;74.36
39357;BME280;25077;50.302;18.996;2022-07-06T07:07:19;98424.75;;;15.90;73.81
39357;BME280;25077;50.302;18.996;2022-07-06T07:10:21;98434.50;;;15.91;74.06
39357;BME280;25077;50.302;18.996;2022-07-06T07:13:24;98429.03;;;15.87;74.63
39357;BME280;25077;50.302;18.996;2022-07-06T07:16:26;98420.44;;;15.85;74.23
39357;BME280;25077;50.302;18.996;2022-07-06T07:19:28;98433.69;;;15.87;74.81
39357;BME280;25077;50.302;18.996;2022-07-06T07:22:30;98445.41;;;15.73;74.04
39357;BME280;25077;50.302;18.996;2022-07-06T07:25:32;98444.22;;;15.70;74.44
39357;BME280;25077;50.302;18.996;2022-07-06T07:28:36;98455.13;;;15.70;73.64
39357;BME280;25077;50.302;18.996;2022-07-06T07:31:38;98461.38;;;15.74;73.44
39357;BME280;25077;50.302;18.996;2022-07-06T07:34:40;98455.94;;;15.67;72.22
39357;BME280;25077;50.302;18.996;2022-07-06T07:37:42;98462.56;;;15.66;72.58
39357;BME280;25077;50.302;18.996;2022-07-06T07:40:44;98453.19;;;15.74;72.54
39357;BME280;25077;50.302;18.996;2022-07-06T07:43:47;98457.88;;;15.81;72.75
39357;BME280;25077;50.302;18.996;2022-07-06T07:46:49;98458.28;;;15.72;71.21
39357;BME280;25077;50.302;18.996;2022-07-06T07:49:53;98462.53;;;15.63;71.41
39357;BME280;25077;50.302;18.996;2022-07-06T07:52:54;98471.13;;;15.65;70.92
39357;BME280;25077;50.302;18.996;2022-07-06T07:55:56;98457.84;;;15.56;71.25
39357;BME280;25077;50.302;18.996;2022-07-06T07:59:00;98464.09;;;15.60;71.65
39357;BME280;25077;50.302;18.996;2022-07-06T08:02:05;98465.69;;;15.75;71.40
39357;BME280;25077;50.302;18.996;2022-07-06T08:05:08;98472.75;;;16.05;71.26
39357;BME280;25077;50.302;18.996;2022-07-06T08:08:13;98459.50;;;16.36;69.81
39357;BME280;25077;50.302;18.996;2022-07-06T08:11:15;98479.75;;;16.63;68.02
39357;BME280;25077;50.302;18.996;2022-07-06T08:14:19;98461.34;;;16.85;68.58
39357;BME280;25077;50.302;18.996;2022-07-06T08:17:21;98456.19;;;17.12;68.25
39357;BME280;25077;50.302;18.996;2022-07-06T08:20:23;98454.53;;;17.32;67.71
39357;BME280;25077;50.302;18.996;2022-07-06T08:23:25;98460.69;;;17.51;68.24
39357;BME280;25077;50.302;18.996;2022-07-06T08:26:27;98453.63;;;17.57;66.36
39357;BME280;25077;50.302;18.996;2022-07-06T08:29:30;98449.69;;;17.61;63.83
39357;BME280;25077;50.302;18.996;2022-07-06T08:32:32;98446.16;;;17.65;66.06
39357;BME280;25077;50.302;18.996;2022-07-06T08:35:38;98455.81;;;17.80;65.83
39357;BME280;25077;50.302;18.996;2022-07-06T08:38:40;98452.69;;;17.81;63.84
39357;BME280;25077;50.302;18.996;2022-07-06T08:41:42;98451.91;;;17.81;63.86
39357;BME280;25077;50.302;18.996;2022-07-06T08:44:50;98445.75;;;17.66;61.38
39357;BME280;25077;50.302;18.996;2022-07-06T08:47:54;98452.00;;;17.67;63.62
39357;BME280;25077;50.302;18.996;2022-07-06T08:50:59;98448.91;;;17.65;62.37
39357;BME280;25077;50.302;18.996;2022-07-06T08:54:02;98435.69;;;17.45;62.29
39357;BME280;25077;50.302;18.996;2022-07-06T08:57:05;98440.81;;;17.40;62.31
39357;BME280;25077;50.302;18.996;2022-07-06T09:00:10;98440.81;;;17.40;63.21
39357;BME280;25077;50.302;18.996;2022-07-06T09:03:12;98440.03;;;17.43;63.32
39357;BME280;25077;50.302;18.996;2022-07-06T09:06:17;98432.19;;;17.41;63.05
39357;BME280;25077;50.302;18.996;2022-07-06T09:09:23;98429.78;;;17.54;63.33
39357;BME280;25077;50.302;18.996;2022-07-06T09:12:26;98423.44;;;17.64;62.74
39357;BME280;25077;50.302;18.996;2022-07-06T09:15:31;98433.13;;;17.79;62.97
39357;BME280;25077;50.302;18.996;2022-07-06T09:18:36;98421.28;;;18.00;62.07
39357;BME280;25077;50.302;18.996;2022-07-06T09:21:38;98429.66;;;18.27;62.26
39357;BME280;25077;50.302;18.996;2022-07-06T09:24:42;98426.00;;;18.37;61.39
39357;BME280;25077;50.302;18.996;2022-07-06T09:27:46;98427.78;;;18.55;60.73
39357;BME280;25077;50.302;18.996;2022-07-06T09:30:54;98433.22;;;18.62;59.80
39357;BME280;25077;50.302;18.996;2022-07-06T09:33:57;98428.47;;;18.66;60.41
39357;BME280;25077;50.302;18.996;2022-07-06T09:37:02;98417.28;;;18.87;60.50
39357;BME280;25077;50.302;18.996;2022-07-06T09:40:17;98422.63;;;19.02;57.48
39357;BME280;25077;50.302;18.996;2022-07-06T09:43:21;98427.69;;;19.03;59.21
39357;BME280;25077;50.302;18.996;2022-07-06T09:46:24;98435.06;;;19.10;58.77
39357;BME280;25077;50.302;18.996;2022-07-06T09:49:27;98424.81;;;19.14;59.21
39357;BME280;25077;50.302;18.996;2022-07-06T09:52:33;98427.09;;;19.19;58.22
39357;BME280;25077;50.302;18.996;2022-07-06T09:55:35;98430.03;;;19.35;58.61
39357;BME280;25077;50.302;18.996;2022-07-06T09:58:38;98430.59;;;19.50;58.38
39357;BME280;25077;50.302;18.996;2022-07-06T10:01:41;98435.31;;;19.80;58.18
39357;BME280;25077;50.302;18.996;2022-07-06T10:04:44;98445.28;;;19.94;56.26
39357;BME280;25077;50.302;18.996;2022-07-06T10:07:49;98445.34;;;19.90;56.77
39357;BME280;25077;50.302;18.996;2022-07-06T10:10:51;98437.09;;;19.90;56.15
39357;BME280;25077;50.302;18.996;2022-07-06T10:13:55;98438.16;;;19.96;55.65
39357;BME280;25077;50.302;18.996;2022-07-06T10:17:00;98429.69;;;20.11;55.48
39357;BME280;25077;50.302;18.996;2022-07-06T10:20:02;98417.97;;;20.30;56.16
39357;BME280;25077;50.302;18.996;2022-07-06T10:23:06;98421.91;;;20.52;55.26
39357;BME280;25077;50.302;18.996;2022-07-06T10:26:09;98427.38;;;20.33;53.61
39357;BME280;25077;50.302;18.996;2022-07-06T10:29:11;98435.06;;;20.18;53.89
39357;BME280;25077;50.302;18.996;2022-07-06T10:32:17;98436.28;;;20.17;54.10
39357;BME280;25077;50.302;18.996;2022-07-06T10:35:20;98434.06;;;20.32;54.28
39357;BME280;25077;50.302;18.996;2022-07-06T10:38:30;98432.28;;;20.45;54.07
39357;BME280;25077;50.302;18.996;2022-07-06T10:41:34;98435.34;;;20.70;54.83
39357;BME280;25077;50.302;18.996;2022-07-06T10:44:44;98430.19;;;20.92;53.68
39357;BME280;25077;50.302;18.996;2022-07-06T10:48:15;98435.00;;;21.08;49.70
39357;BME280;25077;50.302;18.996;2022-07-06T10:51:22;98443.03;;;20.79;50.04
39357;BME280;25077;50.302;18.996;2022-07-06T10:54:24;98442.47;;;20.68;51.88
39357;BME280;25077;50.302;18.996;2022-07-06T10:57:27;98436.63;;;20.66;53.07
39357;BME280;25077;50.302;18.996;2022-07-06T11:00:48;98435.03;;;20.65;50.83
39357;BME280;25077;50.302;18.996;2022-07-06T11:04:05;98436.13;;;20.91;51.92
39357;BME280;25077;50.302;18.996;2022-07-06T11:07:09;98448.56;;;21.19;52.79
39357;BME280;25077;50.302;18.996;2022-07-06T11:10:12;98440.38;;;21.35;52.36
39357;BME280;25077;50.302;18.996;2022-07-06T11:13:25;98449.34;;;21.39;49.74
39357;BME280;25077;50.302;18.996;2022-07-06T11:16:28;98444.81;;;21.29;50.90
39357;BME280;25077;50.302;18.996;2022-07-06T11:19:35;98447.66;;;21.25;51.74
39357;BME280;25077;50.302;18.996;2022-07-06T11:22:38;98450.91;;;21.20;51.54
39357;BME280;25077;50.302;18.996;2022-07-06T11:25:40;98453.66;;;21.00;50.73
39357;BME280;25077;50.302;18.996;2022-07-06T11:28:45;98451.66;;;20.81;50.95
39357;BME280;25077;50.302;18.996;2022-07-06T11:31:49;98451.69;;;20.58;51.16
39357;BME280;25077;50.302;18.996;2022-07-06T11:34:54;98446.31;;;20.50;51.10
39357;BME280;25077;50.302;18.996;2022-07-06T11:37:56;98455.06;;;20.45;52.31
39357;BME280;25077;50.302;18.996;2022-07-06T11:40:59;98448.59;;;20.56;52.34
39357;BME280;25077;50.302;18.996;2022-07-06T11:44:01;98460.09;;;20.50;52.08
39357;BME280;25077;50.302;18.996;2022-07-06T11:47:04;98459.84;;;20.41;51.32
39357;BME280;25077;50.302;18.996;2022-07-06T11:50:08;98448.50;;;20.59;51.60
39357;BME280;25077;50.302;18.996;2022-07-06T11:53:14;98449.03;;;20.74;52.03
39357;BME280;25077;50.302;18.996;2022-07-06T11:56:16;98450.19;;;20.96;51.10
39357;BME280;25077;50.302;18.996;2022-07-06T11:59:23;98450.13;;;21.20;50.50
39357;BME280;25077;50.302;18.996;2022-07-06T12:02:25;98445.47;;;21.53;49.05
39357;BME280;25077;50.302;18.996;2022-07-06T12:05:32;98439.44;;;21.94;47.71
39357;BME280;25077;50.302;18.996;2022-07-06T12:08:41;98445.09;;;22.52;46.44
39357;BME280;25077;50.302;18.996;2022-07-06T12:11:45;98427.84;;;22.65;46.73
39357;BME280;25077;50.302;18.996;2022-07-06T12:14:52;98426.19;;;23.38;48.36
39357;BME280;25077;50.302;18.996;2022-07-06T12:17:54;98437.34;;;23.47;47.53
39357;BME280;25077;50.302;18.996;2022-07-06T12:20:57;98425.78;;;23.10;47.65
39357;BME280;25077;50.302;18.996;2022-07-06T12:23:59;98433.31;;;22.81;47.38
39357;BME280;25077;50.302;18.996;2022-07-06T12:27:10;98431.44;;;22.61;47.38
39357;BME280;25077;50.302;18.996;2022-07-06T12:30:13;98426.56;;;22.82;48.54
39357;BME280;25077;50.302;18.996;2022-07-06T12:33:16;98431.97;;;22.85;48.90
39357;BME280;25077;50.302;18.996;2022-07-06T12:36:20;98431.38;;;22.65;48.03
39357;BME280;25077;50.302;18.996;2022-07-06T12:39:23;98423.53;;;22.93;46.14
39357;BME280;25077;50.302;18.996;2022-07-06T12:42:25;98420.50;;;22.58;45.49
39357;BME280;25077;50.302;18.996;2022-07-06T12:45:29;98421.63;;;22.44;45.92
39357;BME280;25077;50.302;18.996;2022-07-06T12:48:31;98425.63;;;22.43;47.37
39357;BME280;25077;50.302;18.996;2022-07-06T12:51:54;98417.09;;;22.96;45.73
39357;BME280;25077;50.302;18.996;2022-07-06T12:54:59;98417.88;;;23.51;47.49
39357;BME280;25077;50.302;18.996;2022-07-06T12:58:01;98407.94;;;23.40;46.34
39357;BME280;25077;50.302;18.996;2022-07-06T13:01:03;98405.69;;;23.23;46.57
39357;BME280;25077;50.302;18.996;2022-07-06T13:04:07;98407.94;;;23.53;46.10
39357;BME280;25077;50.302;18.996;2022-07-06T13:07:17;98411.00;;;23.81;44.80
39357;BME280;25077;50.302;18.996;2022-07-06T13:10:20;98404.25;;;23.82;46.33
39357;BME280;25077;50.302;18.996;2022-07-06T13:13:22;98417.31;;;23.81;44.85
39357;BME280;25077;50.302;18.996;2022-07-06T13:16:24;98412.22;;;23.41;44.79
39357;BME280;25077;50.302;18.996;2022-07-06T13:19:31;98416.16;;;22.73;43.70
39357;BME280;25077;50.302;18.996;2022-07-06T13:22:34;98405.97;;;22.41;45.30
39357;BME280;25077;50.302;18.996;2022-07-06T13:25:36;98410.31;;;22.71;43.87
39357;BME280;25077;50.302;18.996;2022-07-06T13:28:38;98398.06;;;23.27;45.04
39357;BME280;25077;50.302;18.996;2022-07-06T13:31:40;98406.53;;;24.22;45.67
39357;BME280;25077;50.302;18.996;2022-07-06T13:34:42;98402.19;;;24.68;44.34
39357;BME280;25077;50.302;18.996;2022-07-06T13:37:45;98405.94;;;25.27;43.34
39357;BME280;25077;50.302;18.996;2022-07-06T13:40:49;98386.84;;;26.00;43.98
39357;BME280;25077;50.302;18.996;2022-07-06T13:43:51;98386.72;;;26.87;40.98
39357;BME280;25077;50.302;18.996;2022-07-06T13:46:53;98381.09;;;27.14;39.60
39357;BME280;25077;50.302;18.996;2022-07-06T13:49:55;98374.94;;;27.10;39.29
39357;BME280;25077;50.302;18.996;2022-07-06T13:52:58;98369.69;;;27.03;37.57
39357;BME280;25077;50.302;18.996;2022-07-06T13:56:00;98376.31;;;27.05;36.91
39357;BME280;25077;50.302;18.996;2022-07-06T13:59:02;98372.28;;;27.25;38.30
39357;BME280;25077;50.302;18.996;2022-07-06T14:02:04;98355.50;;;27.76;37.87
39357;BME280;25077;50.302;18.996;2022-07-06T14:05:07;98356.19;;;28.58;37.14
39357;BME280;25077;50.302;18.996;2022-07-06T14:08:10;98348.47;;;29.41;36.04
39357;BME280;25077;50.302;18.996;2022-07-06T14:11:13;98365.50;;;29.58;34.78
39357;BME280;25077;50.302;18.996;2022-07-06T14:14:15;98357.63;;;29.77;34.38
39357;BME280;25077;50.302;18.996;2022-07-06T14:17:17;98353.31;;;29.76;30.67
39357;BME280;25077;50.302;18.996;2022-07-06T14:20:19;98343.13;;;29.93;33.78
39357;BME280;25077;50.302;18.996;2022-07-06T14:23:23;98352.63;;;29.31;27.97
39357;BME280;25077;50.302;18.996;2022-07-06T14:26:25;98355.34;;;28.96;29.66
39357;BME280;25077;50.302;18.996;2022-07-06T14:29:27;98339.00;;;28.74;33.47
39357;BME280;25077;50.302;18.996;2022-07-06T14:32:29;98328.25;;;28.67;33.16
39357;BME280;25077;50.302;18.996;2022-07-06T14:35:31;98336.81;;;28.78;32.64
39357;BME280;25077;50.302;18.996;2022-07-06T14:38:34;98330.91;;;28.47;31.79
39357;BME280;25077;50.302;18.996;2022-07-06T14:41:36;98340.75;;;27.94;31.05
39357;BME280;25077;50.302;18.996;2022-07-06T14:44:39;98352.34;;;27.36;32.05
39357;BME280;25077;50.302;18.996;2022-07-06T14:47:41;98346.47;;;26.36;32.39
39357;BME280;25077;50.302;18.996;2022-07-06T14:50:43;98344.16;;;25.48;32.71
39357;BME280;25077;50.302;18.996;2022-07-06T14:53:46;98345.78;;;24.75;33.29
39357;BME280;25077;50.302;18.996;2022-07-06T14:56:48;98355.84;;;24.25;33.82
39357;BME280;25077;50.302;18.996;2022-07-06T14:59:50;98384.69;;;23.76;34.25
39357;BME280;25077;50.302;18.996;2022-07-06T15:02:52;98371.75;;;23.35;36.50
39357;BME280;25077;50.302;18.996;2022-07-06T15:05:54;98385.94;;;23.62;36.82
39357;BME280;25077;50.302;18.996;2022-07-06T15:08:57;98378.25;;;23.92;37.06
39357;BME280;25077;50.302;18.996;2022-07-06T15:12:01;98389.22;;;24.08;37.42
39357;BME280;25077;50.302;18.996;2022-07-06T15:15:05;98404.09;;;24.58;37.28
39357;BME280;25077;50.302;18.996;2022-07-06T15:18:07;98399.28;;;25.15;37.34
39357;BME280;25077;50.302;18.996;2022-07-06T15:21:09;98399.72;;;25.76;36.49
39357;BME280;25077;50.302;18.996;2022-07-06T15:24:12;98406.81;;;25.77;35.73
39357;BME280;25077;50.302;18.996;2022-07-06T15:27:14;98406.53;;;25.44;35.22
39357;BME280;25077;50.302;18.996;2022-07-06T15:30:16;98408.41;;;25.56;35.30
39357;BME280;25077;50.302;18.996;2022-07-06T15:33:19;98408.06;;;25.45;34.41
39357;BME280;25077;50.302;18.996;2022-07-06T15:36:21;98413.63;;;25.01;35.08
39357;BME280;25077;50.302;18.996;2022-07-06T15:39:25;98417.19;;;24.45;34.81
39357;BME280;25077;50.302;18.996;2022-07-06T15:42:27;98404.91;;;23.99;35.55
39357;BME280;25077;50.302;18.996;2022-07-06T15:45:29;98406.94;;;23.47;36.17
39357;BME280;25077;50.302;18.996;2022-07-06T15:48:31;98402.00;;;23.00;36.64
39357;BME280;25077;50.302;18.996;2022-07-06T15:51:34;98405.75;;;22.65;36.96
39357;BME280;25077;50.302;18.996;2022-07-06T15:54:37;98388.53;;;22.44;37.37
39357;BME280;25077;50.302;18.996;2022-07-06T15:57:39;98398.25;;;22.65;37.52